createdAt,value
2023-03-27T00:01:11.920Z,99.90
2023-03-27T00:03:40.718Z,99.90
2023-03-27T00:06:11.269Z,99.90
2023-03-27T00:08:38.567Z,99.90
2023-03-27T00:11:07.945Z,99.90
2023-03-27T00:13:34.882Z,99.90
2023-03-27T00:16:02.730Z,99.90
2023-03-27T00:18:33.601Z,99.90
2023-03-27T00:21:01.249Z,99.90
2023-03-27T00:23:31.753Z,99.90
2023-03-27T00:25:59.403Z,99.90
2023-03-27T00:28:28.728Z,99.90
2023-03-27T00:30:57.165Z,99.90
2023-03-27T00:33:25.356Z,99.90
2023-03-27T00:35:52.267Z,99.90
2023-03-27T00:38:19.044Z,99.90
2023-03-27T00:40:50.528Z,99.90
2023-03-27T00:43:35.600Z,99.90
2023-03-27T00:46:36.444Z,99.90
2023-03-27T00:49:08.283Z,99.90
2023-03-27T00:51:36.701Z,99.90
2023-03-27T00:54:04.704Z,99.90
2023-03-27T00:56:33.747Z,99.90
2023-03-27T00:59:04.570Z,99.90
2023-03-27T01:01:32.204Z,99.90
2023-03-27T01:04:02.227Z,99.90
2023-03-27T01:06:31.231Z,99.90
2023-03-27T01:08:57.897Z,99.90
2023-03-27T01:11:45.993Z,99.90
2023-03-27T01:14:35.254Z,99.90
2023-03-27T01:17:27.187Z,99.90
2023-03-27T01:20:24.501Z,99.90
2023-03-27T01:23:35.639Z,99.90
2023-03-27T01:26:35.940Z,99.90
2023-03-27T01:29:03.834Z,99.90
2023-03-27T01:31:54.358Z,99.90
2023-03-27T01:34:42.537Z,99.90
2023-03-27T01:37:47.693Z,99.90
2023-03-27T01:40:14.986Z,99.90
2023-03-27T01:42:49.401Z,99.90
2023-03-27T01:45:29.115Z,99.90
2023-03-27T01:48:03.393Z,99.90
2023-03-27T01:50:34.166Z,99.90
2023-03-27T01:53:07.058Z,99.90
2023-03-27T01:55:38.274Z,99.90
2023-03-27T01:58:09.734Z,99.90
2023-03-27T02:00:50.860Z,99.90
2023-03-27T02:03:26.948Z,99.90
2023-03-27T02:05:56.937Z,99.90
2023-03-27T02:08:39.409Z,99.90
2023-03-27T02:11:06.565Z,99.90
2023-03-27T02:14:00.948Z,99.90
2023-03-27T02:16:34.407Z,99.90
2023-03-27T02:19:04.893Z,99.90
2023-03-27T02:21:32.429Z,99.90
2023-03-27T02:24:01.918Z,99.90
2023-03-27T02:26:29.809Z,99.90
2023-03-27T02:29:28.189Z,99.90
2023-03-27T02:32:17.440Z,99.90
2023-03-27T02:35:00.177Z,99.90
2023-03-27T02:37:51.122Z,99.90
2023-03-27T02:40:57.878Z,99.90
2023-03-27T02:43:45.810Z,99.90
2023-03-27T02:46:20.636Z,99.90
2023-03-27T02:48:51.579Z,99.90
2023-03-27T02:51:30.576Z,99.90
2023-03-27T02:54:08.225Z,99.90
2023-03-27T02:56:40.479Z,99.90
2023-03-27T02:59:22.411Z,99.90
2023-03-27T03:01:50.415Z,99.90
2023-03-27T03:04:28.324Z,99.90
2023-03-27T03:06:56.191Z,99.90
2023-03-27T03:09:25.088Z,99.90
2023-03-27T03:11:53.980Z,99.90
2023-03-27T03:14:31.886Z,99.90
2023-03-27T03:16:58.540Z,99.90
2023-03-27T03:19:25.105Z,99.90
2023-03-27T03:21:51.781Z,99.90
2023-03-27T03:24:19.240Z,99.90
2023-03-27T03:26:50.126Z,99.90
2023-03-27T03:29:19.010Z,99.90
2023-03-27T03:31:45.874Z,99.90
2023-03-27T03:34:14.468Z,99.90
2023-03-27T03:36:42.159Z,99.90
2023-03-27T03:39:09.292Z,99.90
2023-03-27T03:41:36.027Z,99.90
2023-03-27T03:44:02.629Z,99.90
2023-03-27T03:46:29.430Z,99.90
2023-03-27T03:48:57.965Z,99.90
2023-03-27T03:51:26.190Z,99.90
2023-03-27T03:53:52.887Z,99.90
2023-03-27T03:56:19.496Z,99.90
2023-03-27T03:58:46.081Z,99.90
2023-03-27T04:01:12.763Z,99.90
2023-03-27T04:03:39.477Z,99.90
2023-03-27T04:06:07.487Z,99.90
2023-03-27T04:08:35.049Z,99.90
2023-03-27T04:11:01.721Z,99.90
2023-03-27T04:13:28.300Z,99.90
2023-03-27T04:15:55.370Z,99.90
2023-03-27T04:18:24.586Z,99.90
2023-03-27T04:20:51.418Z,99.90
2023-03-27T04:23:18.523Z,99.90
2023-03-27T04:25:49.057Z,99.90
2023-03-27T04:28:18.528Z,99.90
2023-03-27T04:30:45.392Z,99.90
2023-03-27T04:33:18.338Z,99.90
2023-03-27T04:35:46.084Z,99.90
2023-03-27T04:38:34.115Z,99.90
2023-03-27T04:41:01.952Z,99.90
2023-03-27T04:43:28.675Z,99.90
2023-03-27T04:45:55.391Z,99.90
2023-03-27T04:48:22.059Z,99.90
2023-03-27T04:50:49.511Z,99.90
2023-03-27T04:53:17.974Z,99.90
2023-03-27T04:55:45.726Z,99.90
2023-03-27T04:58:13.007Z,99.90
2023-03-27T05:00:40.368Z,99.90
2023-03-27T05:03:07.686Z,99.90
2023-03-27T05:05:34.776Z,99.90
2023-03-27T05:08:01.598Z,99.90
2023-03-27T05:10:28.228Z,99.90
2023-03-27T05:12:57.893Z,99.90
2023-03-27T05:15:25.091Z,99.90
2023-03-27T05:17:54.977Z,99.90
2023-03-27T05:20:22.242Z,99.90
2023-03-27T05:22:52.018Z,99.90
2023-03-27T05:25:18.782Z,99.90
2023-03-27T05:27:47.087Z,99.90
2023-03-27T05:30:18.842Z,99.90
2023-03-27T05:32:51.906Z,99.90
2023-03-27T05:35:21.497Z,99.90
2023-03-27T05:37:50.163Z,99.90
2023-03-27T05:40:21.809Z,99.90
2023-03-27T05:42:51.218Z,99.90
2023-03-27T05:45:18.084Z,99.90
2023-03-27T05:47:48.617Z,99.90
2023-03-27T05:50:16.608Z,99.90
2023-03-27T05:52:43.430Z,99.90
2023-03-27T05:55:10.774Z,99.90
2023-03-27T05:57:41.700Z,99.90
2023-03-27T06:00:11.853Z,99.90
2023-03-27T06:02:39.590Z,99.90
2023-03-27T06:05:10.812Z,99.90
2023-03-27T06:07:42.977Z,99.90
2023-03-27T06:10:13.652Z,99.90
2023-03-27T06:12:41.775Z,99.90
2023-03-27T06:15:10.393Z,99.90
2023-03-27T06:17:40.269Z,99.90
2023-03-27T06:20:12.658Z,99.90
2023-03-27T06:22:48.130Z,99.90
2023-03-27T06:25:15.917Z,99.90
2023-03-27T06:27:43.760Z,99.90
2023-03-27T06:30:13.009Z,99.90
2023-03-27T06:32:47.858Z,99.90
2023-03-27T06:35:15.046Z,99.90
2023-03-27T06:37:42.494Z,99.90
2023-03-27T06:40:10.291Z,99.90
2023-03-27T06:42:38.455Z,99.90
2023-03-27T06:45:05.808Z,99.90
2023-03-27T06:47:36.372Z,99.90
2023-03-27T06:50:07.411Z,99.90
2023-03-27T06:52:34.110Z,99.90
2023-03-27T06:55:00.796Z,99.90
2023-03-27T06:57:27.371Z,99.90
2023-03-27T06:59:53.950Z,99.90
2023-03-27T07:02:20.655Z,99.90
2023-03-27T07:04:57.746Z,99.90
2023-03-27T07:07:30.926Z,99.90
2023-03-27T07:09:57.551Z,99.90
2023-03-27T07:12:24.261Z,99.90
2023-03-27T07:14:51.408Z,99.90
2023-03-27T07:17:18.536Z,99.90
2023-03-27T07:19:46.179Z,99.90
2023-03-27T07:22:12.851Z,99.90
2023-03-27T07:24:40.938Z,99.90
2023-03-27T07:27:07.875Z,99.90
2023-03-27T07:29:35.369Z,99.90
2023-03-27T07:32:06.956Z,99.90
2023-03-27T07:34:35.744Z,99.90
2023-03-27T07:37:02.830Z,99.90
2023-03-27T07:39:29.565Z,99.90
2023-03-27T07:41:56.227Z,99.90
2023-03-27T07:44:22.853Z,99.90
2023-03-27T07:46:52.037Z,99.90
2023-03-27T07:49:19.384Z,99.90
2023-03-27T07:52:06.593Z,99.90
2023-03-27T07:54:33.247Z,99.90
2023-03-27T07:57:00.095Z,99.90
2023-03-27T07:59:28.011Z,99.90
2023-03-27T08:01:55.436Z,99.90
2023-03-27T08:04:22.283Z,99.90
2023-03-27T08:06:51.516Z,99.90
2023-03-27T08:09:18.146Z,99.90
2023-03-27T08:11:44.767Z,99.90
2023-03-27T08:14:11.436Z,99.90
2023-03-27T08:16:38.138Z,99.90
2023-03-27T08:19:06.160Z,99.90
2023-03-27T08:21:34.253Z,99.90
2023-03-27T08:24:04.603Z,99.90
2023-03-27T08:26:32.190Z,99.90
2023-03-27T08:28:59.352Z,99.90
2023-03-27T08:31:27.823Z,99.90
2023-03-27T08:33:54.482Z,99.90
2023-03-27T08:36:21.121Z,99.90
2023-03-27T08:38:47.836Z,99.90
2023-03-27T08:41:25.442Z,99.90
2023-03-27T08:43:53.212Z,99.90
2023-03-27T08:46:21.904Z,99.90
2023-03-27T08:48:57.228Z,99.90
2023-03-27T08:51:37.233Z,99.90
2023-03-27T08:54:19.219Z,99.90
2023-03-27T08:56:46.542Z,99.90
2023-03-27T08:59:17.488Z,99.90
2023-03-27T09:01:45.635Z,99.90
2023-03-27T09:04:39.213Z,99.90
2023-03-27T09:07:37.310Z,99.90
2023-03-27T09:10:32.005Z,99.90
2023-03-27T09:13:21.689Z,99.90
2023-03-27T09:15:48.309Z,99.90
2023-03-27T09:18:23.395Z,99.90
2023-03-27T09:20:55.166Z,99.90
2023-03-27T09:23:30.585Z,99.90
2023-03-27T09:26:01.125Z,99.90
2023-03-27T09:28:38.178Z,99.90
2023-03-27T09:31:36.163Z,99.90
2023-03-27T09:34:11.387Z,99.90
2023-03-27T09:36:38.640Z,99.90
2023-03-27T09:39:08.184Z,99.90
2023-03-27T09:41:38.965Z,99.90
2023-03-27T09:44:12.359Z,99.90
2023-03-27T09:46:44.441Z,99.90
2023-03-27T09:49:19.371Z,99.90
2023-03-27T09:51:48.723Z,99.90
2023-03-27T09:54:18.078Z,99.90
2023-03-27T09:56:48.976Z,99.90
2023-03-27T09:59:40.443Z,99.90
2023-03-27T10:02:19.273Z,99.90
2023-03-27T10:04:58.188Z,99.90
2023-03-27T10:07:26.649Z,99.90
2023-03-27T10:10:05.444Z,99.90
2023-03-27T10:12:32.124Z,99.90
2023-03-27T10:14:58.759Z,99.80
2023-03-27T10:17:32.075Z,99.90
2023-03-27T10:20:09.094Z,99.90
2023-03-27T10:22:38.585Z,99.90
2023-03-27T10:25:16.509Z,99.90
2023-03-27T10:27:43.728Z,99.90
2023-03-27T10:30:27.349Z,99.90
2023-03-27T10:32:54.052Z,99.90
2023-03-27T10:35:28.162Z,99.90
2023-03-27T10:37:55.676Z,99.90
2023-03-27T10:40:26.456Z,99.30
2023-03-27T10:43:01.728Z,98.30
2023-03-27T10:45:28.550Z,99.00
2023-03-27T10:47:59.271Z,99.90
2023-03-27T10:50:30.434Z,99.90
2023-03-27T10:53:07.400Z,99.90
2023-03-27T10:55:54.381Z,99.90
2023-03-27T10:58:33.827Z,99.90
2023-03-27T11:01:15.093Z,99.90
2023-03-27T11:03:52.472Z,99.90
2023-03-27T11:06:23.246Z,99.90
2023-03-27T11:09:01.868Z,99.80
2023-03-27T11:11:35.406Z,99.90
2023-03-27T11:14:06.667Z,99.10
2023-03-27T11:16:38.952Z,97.60
2023-03-27T11:19:11.399Z,97.30
2023-03-27T11:21:54.265Z,95.50
2023-03-27T11:24:35.307Z,95.30
2023-03-27T11:27:15.043Z,95.80
2023-03-27T11:29:53.732Z,95.20
2023-03-27T11:32:40.797Z,95.10
2023-03-27T11:35:14.459Z,95.40
2023-03-27T11:37:53.215Z,96.30
2023-03-27T11:40:29.002Z,97.40
2023-03-27T11:42:56.581Z,99.90
2023-03-27T11:45:30.894Z,99.90
2023-03-27T11:48:27.133Z,99.90
2023-03-27T11:51:08.754Z,99.90
2023-03-27T11:53:57.764Z,99.90
2023-03-27T11:56:33.916Z,99.90
2023-03-27T11:59:10.986Z,99.90
2023-03-27T12:01:53.468Z,99.90
2023-03-27T12:04:48.437Z,99.90
2023-03-27T12:07:37.105Z,99.90
2023-03-27T12:10:29.081Z,99.90
2023-03-27T12:13:22.684Z,99.90
2023-03-27T12:16:07.069Z,99.90
2023-03-27T12:19:06.020Z,99.90
2023-03-27T12:21:51.660Z,99.90
2023-03-27T12:24:46.865Z,99.90
2023-03-27T12:27:37.343Z,99.90
2023-03-27T12:30:15.090Z,99.90
2023-03-27T12:33:14.256Z,99.90
2023-03-27T12:35:50.339Z,99.90
2023-03-27T12:38:29.788Z,99.90
2023-03-27T12:41:03.495Z,99.90
2023-03-27T12:43:33.594Z,99.90
2023-03-27T12:46:21.413Z,99.90
2023-03-27T12:48:54.442Z,99.90
2023-03-27T12:51:37.635Z,99.90
2023-03-27T12:54:19.281Z,99.90
2023-03-27T12:57:14.104Z,99.90
2023-03-27T12:59:51.827Z,99.90
2023-03-27T13:02:21.533Z,99.90
2023-03-27T13:05:26.880Z,99.90
2023-03-27T13:08:11.604Z,99.90
2023-03-27T13:10:57.831Z,99.90
2023-03-27T13:13:51.031Z,99.90
2023-03-27T13:16:33.618Z,99.90
2023-03-27T13:19:09.590Z,99.90
2023-03-27T13:21:48.101Z,99.90
2023-03-27T13:24:35.844Z,99.90
2023-03-27T13:27:34.039Z,99.90
2023-03-27T13:30:00.924Z,99.90
2023-03-27T13:32:38.897Z,99.90
2023-03-27T13:35:23.734Z,99.90
2023-03-27T13:37:50.487Z,99.90
2023-03-27T13:40:26.531Z,99.90
2023-03-27T13:43:06.448Z,99.90
2023-03-27T13:45:38.355Z,99.90
2023-03-27T13:48:39.496Z,99.90
2023-03-27T13:51:13.931Z,99.90
2023-03-27T13:53:50.930Z,99.90
2023-03-27T13:56:54.335Z,99.90
2023-03-27T13:59:37.433Z,99.90
2023-03-27T14:02:36.513Z,99.90
2023-03-27T14:05:24.566Z,99.90
2023-03-27T14:08:07.966Z,99.90
2023-03-27T14:11:03.749Z,99.90
2023-03-27T14:13:51.939Z,99.90
2023-03-27T14:16:44.944Z,99.90
2023-03-27T14:19:17.918Z,99.90
2023-03-27T14:22:10.043Z,99.90
2023-03-27T14:24:43.541Z,99.90
2023-03-27T14:27:18.446Z,99.90
2023-03-27T14:29:46.106Z,99.90
2023-03-27T14:32:15.609Z,99.90
2023-03-27T14:35:02.515Z,99.90
2023-03-27T14:37:38.945Z,99.90
2023-03-27T14:40:22.759Z,99.90
2023-03-27T14:42:54.512Z,99.90
2023-03-27T14:45:27.549Z,99.90
2023-03-27T14:48:13.594Z,99.90
2023-03-27T14:50:40.611Z,99.90
2023-03-27T14:53:10.654Z,99.90
2023-03-27T14:55:39.874Z,99.90
2023-03-27T14:58:13.674Z,99.90
2023-03-27T15:00:41.644Z,99.90
2023-03-27T15:03:21.644Z,99.90
2023-03-27T15:05:57.700Z,99.90
2023-03-27T15:08:25.966Z,99.90
2023-03-27T15:10:53.979Z,99.90
2023-03-27T15:13:24.382Z,99.90
2023-03-27T15:15:53.814Z,99.90
2023-03-27T15:18:33.157Z,99.90
2023-03-27T15:21:08.601Z,99.90
2023-03-27T15:23:47.308Z,99.90
2023-03-27T15:26:18.912Z,99.90
2023-03-27T15:29:04.152Z,99.90
2023-03-27T15:31:33.845Z,99.90
2023-03-27T15:34:15.675Z,99.90
2023-03-27T15:36:45.048Z,99.90
2023-03-27T15:39:21.898Z,99.90
2023-03-27T15:41:53.585Z,99.90
2023-03-27T15:44:23.453Z,99.90
2023-03-27T15:46:56.245Z,99.90
2023-03-27T15:49:27.738Z,99.90
2023-03-27T15:51:56.624Z,99.90
2023-03-27T15:54:29.661Z,99.90
2023-03-27T15:57:09.585Z,99.90
2023-03-27T15:59:52.173Z,99.90
2023-03-27T16:02:23.684Z,99.90
2023-03-27T16:04:53.585Z,99.90
2023-03-27T16:07:30.259Z,99.90
2023-03-27T16:10:05.051Z,99.90
2023-03-27T16:12:49.823Z,99.90
2023-03-27T16:15:28.629Z,99.90
2023-03-27T16:17:58.215Z,99.90
2023-03-27T16:20:24.862Z,99.90
2023-03-27T16:22:52.583Z,99.90
2023-03-27T16:25:19.592Z,99.90
2023-03-27T16:27:54.822Z,99.90
2023-03-27T16:30:31.963Z,99.90
2023-03-27T16:33:00.200Z,99.90
2023-03-27T16:35:28.200Z,99.90
2023-03-27T16:37:54.922Z,99.90
2023-03-27T16:40:21.611Z,99.90
2023-03-27T16:42:48.398Z,99.90
2023-03-27T16:45:15.447Z,99.90
2023-03-27T16:47:42.215Z,99.90
2023-03-27T16:50:18.840Z,99.90
2023-03-27T16:52:45.495Z,99.90
2023-03-27T16:55:13.730Z,99.90
2023-03-27T16:57:42.035Z,99.90
2023-03-27T17:00:11.627Z,99.90
2023-03-27T17:02:38.415Z,99.90
2023-03-27T17:05:08.038Z,99.90
2023-03-27T17:07:34.794Z,99.90
2023-03-27T17:10:02.236Z,99.90
2023-03-27T17:12:30.013Z,99.90
2023-03-27T17:14:57.116Z,99.90
2023-03-27T17:17:24.702Z,99.90
2023-03-27T17:19:51.375Z,99.90
2023-03-27T17:22:18.118Z,99.90
2023-03-27T17:24:56.089Z,99.90
2023-03-27T17:27:26.579Z,99.90
2023-03-27T17:29:55.831Z,99.90
2023-03-27T17:32:23.534Z,99.90
2023-03-27T17:34:52.280Z,99.90
2023-03-27T17:37:20.746Z,99.90
2023-03-27T17:39:47.506Z,99.90
2023-03-27T17:42:14.552Z,99.90
2023-03-27T17:44:41.573Z,99.90
2023-03-27T17:47:08.607Z,99.90
2023-03-27T17:49:35.796Z,99.90
2023-03-27T17:52:07.999Z,99.90
2023-03-27T17:54:35.016Z,99.90
2023-03-27T17:57:01.845Z,99.90
2023-03-27T17:59:30.380Z,99.90
2023-03-27T18:01:58.078Z,99.90
2023-03-27T18:04:25.293Z,99.90
2023-03-27T18:06:52.685Z,99.90
2023-03-27T18:09:19.571Z,99.90
2023-03-27T18:11:46.994Z,99.90
2023-03-27T18:14:13.782Z,99.90
2023-03-27T18:16:40.820Z,99.90
2023-03-27T18:19:08.765Z,99.90
2023-03-27T18:21:35.938Z,99.90
2023-03-27T18:24:02.726Z,99.90
2023-03-27T18:26:29.478Z,99.90
2023-03-27T18:28:56.104Z,99.90
2023-03-27T18:31:22.970Z,99.90
2023-03-27T18:33:49.876Z,99.90
2023-03-27T18:36:16.927Z,99.90
2023-03-27T18:38:44.044Z,99.90
2023-03-27T18:41:10.915Z,99.90
2023-03-27T18:43:37.983Z,99.90
2023-03-27T18:46:06.671Z,99.90
2023-03-27T18:48:34.073Z,99.90
2023-03-27T18:51:03.545Z,99.90
2023-03-27T18:53:31.534Z,99.90
2023-03-27T18:55:58.922Z,99.90
2023-03-27T18:58:27.603Z,99.90
2023-03-27T19:00:58.314Z,99.90
2023-03-27T19:03:26.916Z,99.90
2023-03-27T19:05:53.795Z,99.90
2023-03-27T19:08:21.815Z,99.90
2023-03-27T19:10:48.924Z,99.90
2023-03-27T19:13:16.018Z,99.90
2023-03-27T19:15:42.758Z,99.90
2023-03-27T19:18:09.631Z,99.90
2023-03-27T19:20:36.796Z,99.90
2023-03-27T19:23:03.950Z,99.90
2023-03-27T19:25:34.088Z,99.90
2023-03-27T19:28:01.794Z,99.90
2023-03-27T19:30:28.905Z,99.90
2023-03-27T19:32:57.817Z,99.90
2023-03-27T19:35:25.471Z,99.90
2023-03-27T19:37:52.150Z,99.90
2023-03-27T19:40:18.724Z,99.90
2023-03-27T19:42:45.364Z,99.90
2023-03-27T19:45:11.993Z,99.90
2023-03-27T19:47:38.789Z,99.90
2023-03-27T19:50:08.740Z,99.90
2023-03-27T19:52:36.235Z,99.90
2023-03-27T19:55:03.879Z,99.90
2023-03-27T19:57:30.553Z,99.90
2023-03-27T19:59:57.180Z,99.90
2023-03-27T20:02:23.946Z,99.90
2023-03-27T20:04:50.554Z,99.90
2023-03-27T20:07:17.270Z,99.90
2023-03-27T20:09:43.997Z,99.90
2023-03-27T20:12:12.184Z,99.90
2023-03-27T20:14:38.821Z,99.90
2023-03-27T20:17:12.359Z,99.90
2023-03-27T20:19:51.252Z,99.90
2023-03-27T20:22:20.628Z,99.90
2023-03-27T20:24:48.636Z,99.90
2023-03-27T20:27:19.813Z,99.90
2023-03-27T20:29:47.324Z,99.90
2023-03-27T20:32:14.809Z,99.90
2023-03-27T20:34:41.984Z,99.90
2023-03-27T20:37:14.320Z,99.90
2023-03-27T20:39:44.620Z,99.90
2023-03-27T20:42:15.994Z,99.90
2023-03-27T20:44:45.092Z,99.90
2023-03-27T20:47:12.940Z,99.90
2023-03-27T20:49:42.730Z,99.90
2023-03-27T20:52:10.520Z,99.90
2023-03-27T20:54:37.192Z,99.90
2023-03-27T20:57:04.162Z,99.90
2023-03-27T20:59:31.478Z,99.90
2023-03-27T21:01:59.313Z,99.90
2023-03-27T21:04:28.064Z,99.90
2023-03-27T21:06:55.246Z,99.90
2023-03-27T21:09:23.439Z,99.90
2023-03-27T21:11:50.486Z,99.90
2023-03-27T21:14:17.227Z,99.90
2023-03-27T21:16:43.928Z,99.90
2023-03-27T21:19:11.893Z,99.90
2023-03-27T21:21:39.009Z,99.90
2023-03-27T21:24:06.333Z,99.90
2023-03-27T21:26:33.299Z,99.90
2023-03-27T21:29:00.348Z,99.90
2023-03-27T21:31:26.941Z,99.90
2023-03-27T21:33:53.621Z,99.90
2023-03-27T21:36:20.759Z,99.90
2023-03-27T21:38:47.464Z,99.90
2023-03-27T21:41:16.217Z,99.90
2023-03-27T21:43:43.035Z,99.90
2023-03-27T21:46:09.917Z,99.90
2023-03-27T21:48:36.629Z,99.90
2023-03-27T21:51:05.556Z,99.90
2023-03-27T21:53:32.262Z,99.90
2023-03-27T21:55:59.043Z,99.90
2023-03-27T21:58:26.700Z,99.90
2023-03-27T22:00:57.110Z,99.90
2023-03-27T22:03:24.826Z,99.90
2023-03-27T22:06:08.044Z,99.90
2023-03-27T22:08:38.125Z,99.90
2023-03-27T22:11:05.041Z,99.90
2023-03-27T22:13:31.951Z,99.90
2023-03-27T22:15:58.998Z,99.90
2023-03-27T22:18:26.105Z,99.90
2023-03-27T22:20:52.827Z,99.90
2023-03-27T22:23:19.417Z,99.90
2023-03-27T22:25:53.950Z,99.90
2023-03-27T22:28:20.609Z,99.90
2023-03-27T22:30:47.256Z,99.90
2023-03-27T22:33:14.046Z,99.90
2023-03-27T22:35:48.093Z,99.90
2023-03-27T22:38:16.115Z,99.90
2023-03-27T22:40:42.996Z,99.90
2023-03-27T22:43:09.958Z,99.90
2023-03-27T22:45:36.623Z,99.90
2023-03-27T22:48:05.569Z,99.90
2023-03-27T22:50:32.361Z,99.90
2023-03-27T22:52:58.967Z,99.90
2023-03-27T22:55:26.052Z,99.90
2023-03-27T22:57:52.668Z,99.90
2023-03-27T23:00:19.716Z,99.90
2023-03-27T23:02:46.515Z,99.90
2023-03-27T23:05:13.159Z,99.90
2023-03-27T23:07:39.819Z,99.90
2023-03-27T23:10:07.214Z,99.90
2023-03-27T23:12:33.946Z,99.90
2023-03-27T23:15:00.594Z,99.90
2023-03-27T23:17:27.418Z,99.90
2023-03-27T23:19:54.024Z,99.90
2023-03-27T23:22:20.710Z,99.90
2023-03-27T23:24:47.308Z,99.90
2023-03-27T23:27:13.873Z,99.90
2023-03-27T23:29:40.713Z,99.90
2023-03-27T23:32:07.431Z,99.90
2023-03-27T23:34:34.071Z,99.90
2023-03-27T23:37:00.918Z,99.90
2023-03-27T23:39:27.574Z,99.90
2023-03-27T23:41:54.219Z,99.90
2023-03-27T23:44:20.861Z,99.90
2023-03-27T23:46:47.491Z,99.90
2023-03-27T23:49:14.177Z,99.90
2023-03-27T23:51:40.852Z,99.90
2023-03-27T23:54:07.498Z,99.90
2023-03-27T23:56:34.221Z,99.90
2023-03-27T23:59:01.038Z,99.90
